Time;durP1;ratioP1;P1;durP2;ratioP2;P2;SDS_P1;SDS_P2;PMS_P1;PMS_P2;Temp;Humidity;BMP_temperature;BMP_pressure;BME280_temperature;BME280_humidity;BME280_pressure;Samples;Min_cycle;Max_cycle;Signal;HPM_P1;HPM_P2
2021/05/09 00:02:24;;;;;;;4.70;3.45;;;13.60;51.90;;;;;;5076535;28;20024;-74
2021/05/09 00:04:49;;;;;;;4.70;3.05;;;13.60;51.80;;;;;;5077223;28;20020;-74
2021/05/09 00:07:15;;;;;;;4.25;3.22;;;13.70;51.80;;;;;;5075742;28;20539;-74
2021/05/09 00:09:40;;;;;;;5.25;3.38;;;13.70;51.90;;;;;;5079376;28;20036;-73
2021/05/09 00:12:08;;;;;;;5.60;3.50;;;13.60;51.90;;;;;;5069014;28;20021;-74
2021/05/09 00:14:34;;;;;;;7.88;3.00;;;13.70;51.80;;;;;;5072167;28;20043;-74
2021/05/09 00:16:59;;;;;;;5.85;3.10;;;13.70;51.80;;;;;;5069544;28;20036;-73
2021/05/09 00:19:25;;;;;;;6.45;3.40;;;13.70;51.80;;;;;;5071883;28;20155;-75
2021/05/09 00:21:50;;;;;;;6.47;3.75;;;13.70;51.90;;;;;;5072046;28;20013;-74
2021/05/09 00:24:16;;;;;;;7.25;3.13;;;13.70;51.90;;;;;;5071460;28;20028;-76
2021/05/09 00:26:41;;;;;;;4.70;3.15;;;13.70;51.70;;;;;;5071202;28;20389;-73
2021/05/09 00:29:07;;;;;;;4.80;3.20;;;13.70;51.80;;;;;;5073763;28;20051;-73
2021/05/09 00:31:32;;;;;;;5.75;3.70;;;13.70;51.90;;;;;;5070437;28;20024;-74
2021/05/09 00:33:58;;;;;;;4.28;3.13;;;13.70;52.00;;;;;;5071215;28;20502;-74
2021/05/09 00:36:26;;;;;;;4.28;3.13;;;13.70;52.10;;;;;;5071547;28;20013;-74
2021/05/09 00:38:51;;;;;;;5.22;3.42;;;13.70;52.20;;;;;;5070023;28;20040;-75
2021/05/09 00:41:17;;;;;;;6.57;3.45;;;13.70;52.10;;;;;;5070043;28;20028;-75
2021/05/09 00:43:42;;;;;;;6.03;3.10;;;13.80;52.10;;;;;;5070112;28;20508;-75
2021/05/09 00:46:08;;;;;;;4.38;3.10;;;13.80;52.10;;;;;;5052582;28;20032;-74
2021/05/09 00:48:33;;;;;;;4.53;3.13;;;13.70;52.30;;;;;;5086047;28;20036;-74
2021/05/09 00:50:59;;;;;;;4.82;3.08;;;13.80;52.40;;;;;;5082594;28;20461;-74
2021/05/09 00:53:26;;;;;;;4.22;3.20;;;13.70;52.30;;;;;;5066038;28;20024;-74
2021/05/09 00:55:54;;;;;;;4.18;3.10;;;13.70;52.40;;;;;;5067258;28;20021;-74
2021/05/09 00:58:22;;;;;;;5.20;3.38;;;13.70;52.30;;;;;;5079754;28;20575;-74
2021/05/09 01:00:49;;;;;;;5.72;3.15;;;13.70;52.50;;;;;;5079820;28;20080;-74
2021/05/09 01:03:19;;;;;;;4.50;3.30;;;13.70;52.40;;;;;;5064620;28;20029;-74
2021/05/09 01:05:44;;;;;;;5.13;3.60;;;13.80;52.40;;;;;;5070584;28;20469;-74
2021/05/09 01:08:09;;;;;;;5.60;2.70;;;13.70;52.40;;;;;;5062797;28;20086;-74
2021/05/09 01:10:35;;;;;;;4.35;3.17;;;13.80;52.60;;;;;;5070815;28;20115;-74
2021/05/09 01:13:00;;;;;;;3.97;3.13;;;13.80;52.80;;;;;;5069649;28;20023;-74
2021/05/09 01:15:27;;;;;;;6.22;3.63;;;13.80;53.00;;;;;;5070136;28;20028;-74
2021/05/09 01:17:53;;;;;;;6.78;3.47;;;13.80;52.90;;;;;;5069443;28;20055;-74
2021/05/09 01:20:18;;;;;;;4.18;2.83;;;13.80;52.90;;;;;;5077557;28;20016;-74
2021/05/09 01:22:44;;;;;;;5.13;3.20;;;13.80;53.00;;;;;;5078958;28;20054;-75
2021/05/09 01:25:11;;;;;;;4.78;3.42;;;13.80;53.00;;;;;;5068302;28;20070;-74
2021/05/09 01:27:37;;;;;;;5.82;3.15;;;13.80;52.90;;;;;;5068101;28;20035;-74
2021/05/09 01:30:07;;;;;;;8.00;3.22;;;13.80;53.00;;;;;;5086719;28;20020;-75
2021/05/09 01:32:33;;;;;;;4.60;3.17;;;13.80;53.00;;;;;;5076743;28;20064;-74
2021/05/09 01:34:58;;;;;;;4.70;3.00;;;13.80;53.10;;;;;;5069846;28;20428;-74
2021/05/09 01:37:24;;;;;;;4.38;2.83;;;13.80;53.10;;;;;;5069724;28;20029;-75
2021/05/09 01:39:50;;;;;;;5.00;3.30;;;13.80;53.30;;;;;;5069511;28;20032;-75
2021/05/09 01:42:16;;;;;;;5.43;3.22;;;13.80;53.40;;;;;;5070162;28;20037;-74
2021/05/09 01:44:50;;;;;;;4.10;3.00;;;13.80;53.40;;;;;;5069407;28;20036;-74
2021/05/09 01:47:16;;;;;;;4.43;3.35;;;13.80;53.50;;;;;;5069896;28;20024;-75
2021/05/09 01:49:41;;;;;;;4.28;3.20;;;13.90;53.50;;;;;;5081638;28;20084;-74
2021/05/09 01:52:07;;;;;;;6.07;3.38;;;13.80;53.50;;;;;;5084676;28;20021;-74
2021/05/09 01:54:32;;;;;;;3.95;3.00;;;13.80;53.50;;;;;;5084200;28;20028;-75
2021/05/09 01:56:58;;;;;;;4.82;3.30;;;13.80;53.70;;;;;;5089223;28;20157;-74
2021/05/09 01:59:23;;;;;;;3.97;2.85;;;13.80;53.80;;;;;;5080156;28;20064;-74
2021/05/09 02:01:49;;;;;;;3.97;3.00;;;13.80;53.90;;;;;;5090588;28;20062;-74
2021/05/09 02:04:14;;;;;;;4.72;3.20;;;13.80;54.00;;;;;;5069139;28;20045;-75
2021/05/09 02:06:40;;;;;;;5.78;3.22;;;13.80;54.10;;;;;;5069219;28;20104;-75
2021/05/09 02:09:05;;;;;;;4.22;3.20;;;13.80;54.10;;;;;;5070804;28;20111;-75
2021/05/09 02:11:31;;;;;;;4.25;3.05;;;13.80;54.20;;;;;;5082217;28;20070;-75
2021/05/09 02:13:56;;;;;;;4.38;2.78;;;13.80;54.20;;;;;;5080309;28;20029;-73
2021/05/09 02:16:22;;;;;;;4.93;3.20;;;13.80;54.40;;;;;;5074579;28;20024;-74
2021/05/09 02:18:47;;;;;;;6.90;3.55;;;13.80;54.40;;;;;;5071892;28;20040;-75
2021/05/09 02:21:12;;;;;;;4.72;3.20;;;13.80;54.40;;;;;;5059401;28;20020;-74
2021/05/09 02:23:38;;;;;;;7.10;3.45;;;13.80;55.00;;;;;;5055482;28;20032;-75
2021/05/09 02:26:03;;;;;;;5.45;3.47;;;13.80;54.50;;;;;;5074684;28;20100;-74
2021/05/09 02:28:29;;;;;;;5.80;3.35;;;13.70;54.60;;;;;;5055973;28;20077;-74
2021/05/09 02:30:54;;;;;;;4.65;3.25;;;13.80;54.70;;;;;;5087178;28;20465;-74
2021/05/09 02:33:20;;;;;;;4.65;3.10;;;13.80;54.80;;;;;;5068167;28;20115;-74
2021/05/09 02:35:45;;;;;;;7.22;3.75;;;13.70;54.70;;;;;;5069459;28;20558;-75
2021/05/09 02:38:11;;;;;;;4.80;3.45;;;13.70;54.80;;;;;;5071818;28;20039;-74
2021/05/09 02:40:36;;;;;;;5.28;3.50;;;13.70;54.90;;;;;;5084703;28;20081;-74
2021/05/09 02:43:02;;;;;;;3.97;2.92;;;13.70;55.00;;;;;;5087070;28;20029;-77
2021/05/09 02:45:28;;;;;;;4.47;3.08;;;13.70;55.10;;;;;;5077001;28;20024;-76
2021/05/09 02:47:54;;;;;;;4.45;2.70;;;13.70;55.20;;;;;;5071896;28;20043;-76
2021/05/09 02:50:19;;;;;;;4.57;3.20;;;13.70;55.30;;;;;;5072806;28;20033;-77
2021/05/09 02:52:44;;;;;;;4.78;3.50;;;13.70;55.40;;;;;;5071776;28;20486;-75
2021/05/09 02:55:11;;;;;;;4.97;3.40;;;13.70;55.40;;;;;;5081234;28;20096;-76
2021/05/09 02:57:36;;;;;;;4.28;3.08;;;13.70;55.50;;;;;;5072539;28;20404;-76
2021/05/09 03:00:04;;;;;;;5.55;3.13;;;13.70;55.60;;;;;;5081061;28;20059;-76
2021/05/09 03:02:30;;;;;;;4.25;3.10;;;13.70;55.70;;;;;;5071234;28;20032;-76
2021/05/09 03:04:55;;;;;;;4.03;3.13;;;13.70;55.80;;;;;;5053915;28;20070;-76
2021/05/09 03:07:21;;;;;;;4.88;3.13;;;13.70;55.90;;;;;;5071648;28;20029;-76
2021/05/09 03:09:46;;;;;;;3.88;3.10;;;13.70;56.50;;;;;;5071183;28;20364;-76
2021/05/09 03:12:12;;;;;;;4.53;3.25;;;13.70;56.10;;;;;;5072887;28;20094;-75
2021/05/09 03:14:37;;;;;;;3.97;3.15;;;13.60;56.20;;;;;;5086674;28;20035;-75
2021/05/09 03:17:03;;;;;;;5.18;3.15;;;13.60;56.30;;;;;;5093320;28;20032;-75
2021/05/09 03:19:28;;;;;;;4.30;2.97;;;13.60;56.40;;;;;;5087359;28;20559;-75
2021/05/09 03:21:54;;;;;;;5.65;3.30;;;13.60;56.50;;;;;;5093418;28;20066;-73
2021/05/09 03:24:19;;;;;;;5.68;3.15;;;13.60;56.60;;;;;;5075465;28;20028;-74
2021/05/09 03:26:45;;;;;;;5.57;3.30;;;13.60;56.70;;;;;;5072925;28;20029;-73
2021/05/09 03:29:10;;;;;;;6.30;3.25;;;13.60;56.70;;;;;;5081488;28;20023;-73
2021/05/09 03:31:36;;;;;;;4.40;3.00;;;13.50;56.90;;;;;;5082200;28;20031;-74
2021/05/09 03:34:02;;;;;;;4.63;2.97;;;13.50;57.20;;;;;;5072925;28;20024;-73
2021/05/09 03:36:27;;;;;;;3.67;2.90;;;13.50;57.60;;;;;;5078726;28;20017;-74
2021/05/09 03:38:53;;;;;;;3.75;3.10;;;13.40;57.10;;;;;;5080115;28;20128;-74
2021/05/09 03:41:20;;;;;;;3.90;3.00;;;13.40;57.40;;;;;;5085824;28;20035;-74
2021/05/09 03:43:46;;;;;;;5.63;3.50;;;13.40;57.50;;;;;;5079683;28;20035;-74
2021/05/09 03:46:11;;;;;;;4.50;3.50;;;13.40;57.50;;;;;;5087397;28;20020;-73
2021/05/09 03:48:37;;;;;;;4.65;3.28;;;13.40;57.70;;;;;;5086499;28;20032;-73
2021/05/09 03:51:03;;;;;;;4.63;3.30;;;13.30;57.80;;;;;;5089058;28;20020;-74
2021/05/09 03:53:30;;;;;;;5.78;3.80;;;13.30;58.10;;;;;;5064399;28;20058;-74
2021/05/09 03:55:56;;;;;;;5.07;3.22;;;13.30;58.10;;;;;;5055714;28;20021;-74
2021/05/09 03:58:22;;;;;;;6.60;3.30;;;13.30;58.30;;;;;;5056828;28;20110;-75
2021/05/09 04:00:47;;;;;;;4.68;3.30;;;13.30;58.50;;;;;;5056139;28;20071;-75
2021/05/09 04:03:28;;;;;;;6.22;3.47;;;13.30;58.50;;;;;;5088641;28;20597;-75
2021/05/09 04:05:55;;;;;;;4.38;3.33;;;13.30;58.50;;;;;;5079631;28;20382;-74
2021/05/09 04:08:23;;;;;;;4.75;2.97;;;13.30;58.60;;;;;;5069599;28;20123;-75
2021/05/09 04:10:56;;;;;;;6.30;3.15;;;13.30;58.80;;;;;;5071284;28;20067;-74
2021/05/09 04:13:23;;;;;;;4.97;3.00;;;13.30;59.10;;;;;;5075136;28;20024;-74
2021/05/09 04:15:49;;;;;;;4.20;3.03;;;13.40;59.10;;;;;;5086242;28;20036;-74
2021/05/09 04:18:14;;;;;;;7.70;3.40;;;13.40;59.20;;;;;;5070170;28;20039;-74
2021/05/09 04:20:41;;;;;;;4.22;3.22;;;13.40;59.50;;;;;;5071458;28;20025;-75
2021/05/09 04:23:11;;;;;;;4.68;3.33;;;13.40;59.50;;;;;;5073631;28;20031;-76
2021/05/09 04:25:37;;;;;;;5.03;3.08;;;13.40;59.60;;;;;;5075019;28;20039;-76
2021/05/09 04:28:03;;;;;;;5.70;3.28;;;13.40;59.70;;;;;;5069920;28;20029;-76
2021/05/09 04:30:29;;;;;;;6.85;3.15;;;13.40;59.90;;;;;;5074225;28;20077;-77
2021/05/09 04:33:02;;;;;;;4.15;3.10;;;13.40;60.00;;;;;;5083674;28;20415;-77
2021/05/09 04:35:28;;;;;;;3.57;2.93;;;13.40;60.00;;;;;;5091952;28;20081;-76
2021/05/09 04:37:54;;;;;;;6.28;3.05;;;13.40;60.10;;;;;;5081285;28;21099;-76
2021/05/09 04:40:20;;;;;;;5.18;3.13;;;13.30;60.10;;;;;;5071677;28;20048;-76
2021/05/09 04:42:46;;;;;;;6.25;3.45;;;13.40;60.40;;;;;;5068855;28;20081;-76
2021/05/09 04:45:12;;;;;;;4.88;2.85;;;13.30;60.40;;;;;;5071687;28;20035;-80
2021/05/09 04:47:38;;;;;;;5.45;3.60;;;13.40;60.50;;;;;;5069663;28;20016;-71
2021/05/09 04:50:04;;;;;;;4.15;3.15;;;13.40;60.80;;;;;;5070921;28;20493;-75
2021/05/09 04:52:30;;;;;;;5.45;3.20;;;13.40;60.90;;;;;;5069320;28;20031;-74
2021/05/09 04:54:56;;;;;;;10.35;3.80;;;13.40;60.80;;;;;;5051952;28;20040;-74
2021/05/09 04:57:21;;;;;;;5.45;3.28;;;13.40;60.90;;;;;;5076346;28;20402;-74
2021/05/09 04:59:47;;;;;;;6.25;3.47;;;13.40;60.90;;;;;;5072258;28;20040;-74
2021/05/09 05:02:12;;;;;;;4.65;3.20;;;13.50;60.80;;;;;;5071052;28;20009;-75
2021/05/09 05:04:38;;;;;;;4.93;3.05;;;13.50;60.80;;;;;;5070199;28;20115;-74
2021/05/09 05:07:03;;;;;;;8.93;3.30;;;13.50;61.00;;;;;;5071078;28;20013;-74
2021/05/09 05:09:29;;;;;;;4.50;3.10;;;13.60;61.00;;;;;;5082651;28;20459;-75
2021/05/09 05:11:55;;;;;;;5.05;3.30;;;13.60;61.00;;;;;;5073038;28;20049;-74
2021/05/09 05:14:20;;;;;;;4.57;3.13;;;13.70;61.00;;;;;;5074791;28;20028;-74
2021/05/09 05:16:46;;;;;;;4.47;3.13;;;13.70;61.10;;;;;;5071164;28;20534;-74
2021/05/09 05:19:11;;;;;;;4.50;2.97;;;13.70;61.30;;;;;;5075366;28;20031;-73
2021/05/09 05:21:37;;;;;;;5.50;3.35;;;13.80;61.60;;;;;;5071675;28;20388;-75
2021/05/09 05:24:03;;;;;;;3.80;2.60;;;13.80;61.60;;;;;;5067932;28;20082;-76
2021/05/09 05:26:28;;;;;;;4.72;2.97;;;13.90;61.80;;;;;;5049973;28;20416;-74
2021/05/09 05:28:54;;;;;;;4.57;3.10;;;13.90;61.50;;;;;;5062032;28;20362;-78
2021/05/09 05:31:19;;;;;;;4.30;2.63;;;14.00;61.50;;;;;;5070888;28;20039;-74
2021/05/09 05:33:45;;;;;;;5.47;3.42;;;14.00;61.50;;;;;;5068815;28;20028;-74
2021/05/09 05:36:10;;;;;;;4.45;3.33;;;14.10;61.40;;;;;;5070297;28;20025;-74
2021/05/09 05:38:36;;;;;;;4.63;2.95;;;14.20;61.50;;;;;;5069802;28;20424;-73
2021/05/09 05:41:02;;;;;;;3.95;2.70;;;14.30;61.60;;;;;;5076078;28;20024;-73
2021/05/09 05:43:29;;;;;;;4.90;3.00;;;14.40;61.50;;;;;;5077460;28;20465;-74
2021/05/09 05:45:56;;;;;;;4.60;2.97;;;14.50;61.80;;;;;;5062283;28;20028;-73
2021/05/09 05:48:22;;;;;;;4.38;3.13;;;14.60;61.80;;;;;;5068230;28;20029;-73
2021/05/09 05:50:49;;;;;;;3.78;2.92;;;14.70;61.70;;;;;;5069871;28;20494;-74
2021/05/09 05:53:30;;;;;;;3.78;2.83;;;14.80;61.60;;;;;;5068141;28;20028;-74
2021/05/09 05:55:56;;;;;;;4.63;2.88;;;14.90;61.60;;;;;;5070000;28;20127;-74
2021/05/09 05:58:22;;;;;;;5.13;3.10;;;15.10;61.30;;;;;;5051325;28;20119;-74
2021/05/09 06:00:48;;;;;;;3.92;2.75;;;15.20;61.40;;;;;;5069486;28;20056;-73
2021/05/09 06:03:13;;;;;;;3.80;2.72;;;15.30;61.40;;;;;;5072693;28;20057;-74
2021/05/09 06:05:39;;;;;;;6.28;3.25;;;15.40;61.10;;;;;;5085720;28;20017;-74
2021/05/09 06:08:05;;;;;;;4.28;2.70;;;15.50;61.00;;;;;;5053905;28;20028;-74
2021/05/09 06:10:31;;;;;;;4.75;2.70;;;15.50;60.80;;;;;;5069333;28;20029;-74
2021/05/09 06:12:57;;;;;;;4.63;2.80;;;15.60;60.80;;;;;;5068867;28;20048;-74
2021/05/09 06:15:23;;;;;;;3.88;2.50;;;15.70;60.50;;;;;;5070351;28;20021;-70
2021/05/09 06:17:49;;;;;;;3.95;2.65;;;15.80;60.50;;;;;;5083118;28;20124;-71
2021/05/09 06:20:15;;;;;;;5.07;2.75;;;15.80;60.70;;;;;;5061971;28;20021;-71
2021/05/09 06:22:41;;;;;;;5.82;2.72;;;15.90;60.40;;;;;;5072599;28;20025;-71
2021/05/09 06:25:07;;;;;;;3.67;2.83;;;16.00;60.40;;;;;;5093307;28;20020;-72
2021/05/09 06:27:33;;;;;;;5.00;3.17;;;16.00;60.40;;;;;;5094052;28;20020;-71
2021/05/09 06:29:58;;;;;;;3.42;2.63;;;16.10;60.30;;;;;;5085349;28;20120;-71
2021/05/09 06:32:24;;;;;;;3.88;2.50;;;16.20;60.10;;;;;;5056727;28;20469;-71
2021/05/09 06:34:49;;;;;;;4.45;2.53;;;16.30;60.00;;;;;;5070508;28;20037;-71
2021/05/09 06:37:16;;;;;;;3.58;2.25;;;16.30;59.70;;;;;;5055891;28;20427;-71
2021/05/09 06:39:41;;;;;;;4.13;2.38;;;16.40;59.30;;;;;;5063242;28;20107;-72
2021/05/09 06:42:07;;;;;;;4.05;2.85;;;16.50;59.20;;;;;;5076263;28;20369;-70
2021/05/09 06:44:40;;;;;;;3.65;2.28;;;16.50;59.30;;;;;;5061637;28;20028;-72
2021/05/09 06:47:05;;;;;;;3.80;2.33;;;16.60;59.10;;;;;;5078605;28;20032;-72
2021/05/09 06:49:32;;;;;;;3.30;2.45;;;16.60;59.00;;;;;;5075865;28;20028;-73
2021/05/09 06:51:59;;;;;;;4.15;2.08;;;16.70;58.90;;;;;;5072467;28;20046;-73
2021/05/09 06:54:25;;;;;;;3.20;1.92;;;16.70;59.10;;;;;;5067766;28;20350;-73
2021/05/09 06:56:51;;;;;;;3.38;2.20;;;16.70;59.00;;;;;;5078273;28;20012;-73
2021/05/09 06:59:17;;;;;;;3.92;2.00;;;16.70;59.10;;;;;;5053539;28;20064;-73
2021/05/09 07:01:43;;;;;;;3.13;2.20;;;16.70;58.90;;;;;;5078754;28;20040;-72
2021/05/09 07:04:09;;;;;;;3.80;2.28;;;16.70;58.80;;;;;;5081647;28;20024;-72
2021/05/09 07:06:35;;;;;;;3.72;2.05;;;16.70;58.60;;;;;;5073266;28;20369;-72
2021/05/09 07:09:02;;;;;;;5.72;2.30;;;16.80;58.50;;;;;;5070082;28;20025;-73
2021/05/09 07:11:30;;;;;;;4.95;2.30;;;16.80;58.70;;;;;;5078760;28;20100;-73
2021/05/09 07:13:55;;;;;;;3.20;2.08;;;16.90;58.50;;;;;;5076108;28;20041;-73
2021/05/09 07:16:21;;;;;;;5.05;2.47;;;16.90;58.60;;;;;;5058543;28;20021;-72
2021/05/09 07:18:46;;;;;;;3.45;1.95;;;17.00;58.70;;;;;;5070325;28;20116;-73
2021/05/09 07:21:15;;;;;;;3.90;1.95;;;17.10;58.80;;;;;;5081600;28;20020;-72
2021/05/09 07:23:46;;;;;;;6.18;2.10;;;17.20;58.80;;;;;;5061026;28;20031;-72
2021/05/09 07:26:13;;;;;;;4.30;2.25;;;17.30;58.70;;;;;;5077944;28;20032;-73
2021/05/09 07:28:38;;;;;;;4.00;2.30;;;17.40;58.70;;;;;;5070663;28;20033;-73
2021/05/09 07:31:04;;;;;;;3.80;2.15;;;17.50;58.60;;;;;;5035697;28;20032;-73
2021/05/09 07:33:29;;;;;;;3.60;2.20;;;17.50;58.50;;;;;;5045588;28;20039;-72
2021/05/09 07:35:55;;;;;;;4.30;2.00;;;17.60;58.60;;;;;;5070181;28;20047;-73
2021/05/09 07:38:20;;;;;;;2.83;1.95;;;17.70;58.60;;;;;;5082281;28;20031;-73
2021/05/09 07:40:46;;;;;;;3.20;2.33;;;17.70;58.60;;;;;;5072879;28;20066;-73
2021/05/09 07:43:13;;;;;;;3.28;2.00;;;17.90;58.30;;;;;;5070508;28;20060;-73
2021/05/09 07:45:39;;;;;;;5.40;2.72;;;18.00;58.10;;;;;;5072248;28;20020;-74
2021/05/09 07:48:05;;;;;;;2.58;1.83;;;18.20;57.80;;;;;;5075684;28;20074;-70
2021/05/09 07:50:31;;;;;;;3.58;2.13;;;18.30;57.70;;;;;;5054446;28;20116;-71
2021/05/09 07:53:00;;;;;;;3.33;2.00;;;18.40;57.90;;;;;;5066153;28;20112;-71
2021/05/09 07:55:26;;;;;;;3.70;2.10;;;18.50;57.60;;;;;;5072321;28;20020;-70
2021/05/09 07:57:52;;;;;;;4.03;2.20;;;18.50;57.80;;;;;;5070627;28;20063;-72
2021/05/09 08:00:19;;;;;;;3.50;2.30;;;18.60;57.70;;;;;;5071426;28;20068;-73
2021/05/09 08:02:45;;;;;;;3.85;1.92;;;18.70;57.20;;;;;;5049210;28;20024;-72
2021/05/09 08:05:12;;;;;;;3.90;2.22;;;18.80;57.00;;;;;;5072272;28;20028;-72
2021/05/09 08:07:47;;;;;;;4.50;2.30;;;18.80;57.00;;;;;;5071855;28;20033;-72
2021/05/09 08:10:13;;;;;;;3.17;2.10;;;18.90;56.50;;;;;;5071718;28;20048;-71
2021/05/09 08:12:39;;;;;;;3.55;1.77;;;19.00;56.80;;;;;;5091892;28;20056;-71
2021/05/09 08:15:05;;;;;;;5.35;2.08;;;19.10;56.70;;;;;;5073158;28;20020;-68
2021/05/09 08:17:30;;;;;;;2.42;2.03;;;19.10;56.50;;;;;;5053282;28;20051;-74
2021/05/09 08:19:56;;;;;;;3.10;1.65;;;19.20;56.30;;;;;;5056543;28;20416;-71
2021/05/09 08:22:21;;;;;;;3.97;2.10;;;19.30;56.30;;;;;;5063530;28;20115;-71
2021/05/09 08:24:47;;;;;;;6.72;2.20;;;19.40;56.10;;;;;;5069577;28;20421;-72
2021/05/09 08:27:12;;;;;;;3.03;1.60;;;19.50;55.90;;;;;;5061045;28;20029;-70
2021/05/09 08:29:38;;;;;;;4.20;2.00;;;19.60;56.00;;;;;;5040041;28;20388;-70
2021/05/09 08:32:03;;;;;;;2.25;1.63;;;19.70;56.00;;;;;;5066498;28;20040;-70
2021/05/09 08:34:29;;;;;;;3.30;2.10;;;19.80;55.80;;;;;;5070857;28;20359;-69
2021/05/09 08:36:55;;;;;;;2.30;1.60;;;19.90;55.50;;;;;;5073272;28;20024;-70
2021/05/09 08:39:20;;;;;;;2.78;1.80;;;19.90;55.20;;;;;;5073274;28;20456;-70
2021/05/09 08:41:48;;;;;;;3.25;1.70;;;20.00;55.40;;;;;;5074898;28;20031;-71
2021/05/09 08:44:13;;;;;;;2.85;1.63;;;20.10;55.40;;;;;;5072854;28;20045;-70
2021/05/09 08:46:41;;;;;;;3.70;2.08;;;20.20;55.30;;;;;;5064917;28;20025;-71
2021/05/09 08:49:08;;;;;;;3.78;1.90;;;20.20;55.20;;;;;;5072292;28;20050;-71
2021/05/09 08:51:34;;;;;;;3.78;2.00;;;20.30;55.00;;;;;;5074195;28;20149;-71
2021/05/09 08:54:00;;;;;;;4.07;2.28;;;20.40;55.00;;;;;;5081345;28;20053;-71
2021/05/09 08:56:26;;;;;;;2.55;1.75;;;20.40;54.70;;;;;;5050301;28;20040;-71
2021/05/09 08:58:52;;;;;;;4.15;2.10;;;20.50;54.60;;;;;;5072906;28;20072;-71
2021/05/09 09:01:18;;;;;;;3.10;1.90;;;20.60;54.60;;;;;;5069395;28;20121;-68
2021/05/09 09:03:44;;;;;;;3.72;2.00;;;20.60;54.50;;;;;;5072167;28;20028;-70
2021/05/09 09:06:14;;;;;;;2.65;1.70;;;20.60;54.30;;;;;;5069155;28;20021;-70
2021/05/09 09:08:53;;;;;;;3.00;1.70;;;20.70;53.90;;;;;;5067300;28;20044;-70
2021/05/09 09:11:26;;;;;;;1.95;1.40;;;20.70;53.90;;;;;;5069854;28;20063;-70
2021/05/09 09:14:12;;;;;;;2.47;1.45;;;20.80;53.50;;;;;;5079121;28;20039;-70
2021/05/09 09:16:38;;;;;;;2.45;1.88;;;21.00;53.20;;;;;;5068091;28;20505;-71
2021/05/09 09:19:13;;;;;;;2.88;1.58;;;21.00;53.30;;;;;;5062036;28;20036;-71
2021/05/09 09:21:38;;;;;;;;;;;21.10;53.40;;;;;;5051795;28;20029;-71
2021/05/09 09:24:06;;;;;;;3.25;1.60;;;21.20;53.70;;;;;;5063811;28;20374;-72
2021/05/09 09:26:34;;;;;;;2.58;1.58;;;21.20;53.10;;;;;;5073430;28;20079;-73
2021/05/09 09:29:19;;;;;;;3.13;1.50;;;21.30;53.20;;;;;;5071623;28;20025;-72
2021/05/09 09:31:45;;;;;;;4.40;1.90;;;21.40;52.70;;;;;;5070755;28;20029;-72
2021/05/09 09:34:12;;;;;;;2.67;1.23;;;21.50;52.50;;;;;;5069285;28;20041;-73
2021/05/09 09:36:39;;;;;;;4.45;2.13;;;21.50;52.40;;;;;;5056175;28;20027;-71
2021/05/09 09:39:06;;;;;;;5.93;1.98;;;21.60;52.10;;;;;;5069649;28;20477;-71
2021/05/09 09:41:32;;;;;;;3.10;1.60;;;21.70;52.00;;;;;;5062148;28;20037;-68
2021/05/09 09:44:08;;;;;;;5.03;1.70;;;21.80;51.70;;;;;;5057817;28;20092;-70
2021/05/09 09:46:39;;;;;;;2.45;1.65;;;21.80;51.50;;;;;;5047669;28;20029;-70
2021/05/09 09:49:19;;;;;;;1.88;1.30;;;21.90;51.40;;;;;;5068227;28;20086;-71
2021/05/09 09:51:59;;;;;;;1.77;1.30;;;22.00;51.30;;;;;;5066217;28;20028;-71
2021/05/09 09:54:46;;;;;;;2.90;1.52;;;22.00;51.00;;;;;;5065105;28;20029;-71
2021/05/09 09:57:29;;;;;;;2.92;1.52;;;22.10;51.30;;;;;;5071373;28;20032;-71
2021/05/09 10:00:09;;;;;;;4.50;1.92;;;22.20;51.20;;;;;;5073398;28;20048;-71
2021/05/09 10:02:36;;;;;;;3.17;1.80;;;22.30;51.20;;;;;;5054951;28;20029;-71
2021/05/09 10:05:03;;;;;;;2.78;1.63;;;22.40;51.00;;;;;;5063926;28;20051;-70
2021/05/09 10:07:28;;;;;;;2.88;1.27;;;22.40;50.70;;;;;;5068920;28;20416;-71
2021/05/09 10:09:57;;;;;;;5.32;1.52;;;22.50;50.60;;;;;;5055136;28;20367;-70
2021/05/09 10:12:26;;;;;;;2.13;1.30;;;22.60;50.50;;;;;;5076714;28;20025;-71
2021/05/09 10:14:52;;;;;;;2.20;1.25;;;22.70;50.60;;;;;;5071692;28;20031;-71
2021/05/09 10:17:20;;;;;;;2.65;1.48;;;22.70;50.50;;;;;;5078129;28;20016;-71
2021/05/09 10:19:47;;;;;;;5.05;1.33;;;22.80;50.30;;;;;;5065430;28;20060;-70
2021/05/09 10:22:35;;;;;;;2.38;1.40;;;22.90;50.30;;;;;;5068124;28;20024;-69
2021/05/09 10:25:02;;;;;;;1.73;1.10;;;22.90;50.30;;;;;;5073737;28;20031;-74
2021/05/09 10:27:39;;;;;;;3.08;1.33;;;23.00;50.40;;;;;;5051572;28;20134;-73
2021/05/09 10:30:12;;;;;;;2.17;1.38;;;23.10;50.20;;;;;;5073276;28;20024;-70
2021/05/09 10:32:38;;;;;;;2.40;1.40;;;23.10;50.00;;;;;;5052079;28;20059;-71
2021/05/09 10:35:05;;;;;;;2.55;1.40;;;23.10;49.80;;;;;;5069523;28;20033;-72
2021/05/09 10:37:37;;;;;;;2.15;1.60;;;23.20;49.90;;;;;;5072540;28;20535;-71
2021/05/09 10:40:22;;;;;;;4.85;1.48;;;23.30;49.50;;;;;;5054422;28;20033;-71
2021/05/09 10:43:01;;;;;;;7.45;1.70;;;23.30;49.30;;;;;;5080674;28;20392;-70
2021/05/09 10:45:50;;;;;;;1.88;1.20;;;23.40;49.00;;;;;;5075675;28;20469;-70
2021/05/09 10:48:20;;;;;;;2.75;1.30;;;23.40;48.70;;;;;;5078053;28;20412;-70
2021/05/09 10:51:11;;;;;;;1.60;1.27;;;23.40;48.70;;;;;;5073817;28;20071;-70
2021/05/09 10:53:37;;;;;;;4.50;1.77;;;23.40;48.00;;;;;;5072926;28;20431;-70
2021/05/09 10:56:03;;;;;;;3.17;1.30;;;23.50;48.20;;;;;;5055309;28;20025;-70
2021/05/09 10:58:50;;;;;;;1.70;1.08;;;23.50;48.20;;;;;;5073958;28;20180;-71
2021/05/09 11:01:28;;;;;;;2.70;1.33;;;23.60;48.30;;;;;;5077264;28;20053;-70
2021/05/09 11:03:58;;;;;;;3.30;1.50;;;23.60;47.90;;;;;;5073860;28;20115;-69
2021/05/09 11:06:27;;;;;;;2.35;1.40;;;23.70;48.20;;;;;;5093845;28;20020;-70
2021/05/09 11:09:05;;;;;;;3.13;1.30;;;23.80;48.40;;;;;;5083477;28;20025;-70
2021/05/09 11:11:31;;;;;;;3.03;1.23;;;23.80;48.10;;;;;;5072793;28;20027;-69
2021/05/09 11:14:04;;;;;;;4.55;1.90;;;23.80;47.90;;;;;;5071261;28;20058;-69
2021/05/09 11:16:31;;;;;;;3.22;1.30;;;23.90;47.60;;;;;;5072682;28;20032;-69
2021/05/09 11:19:05;;;;;;;2.47;1.45;;;23.90;47.40;;;;;;5068631;28;20481;-69
2021/05/09 11:21:33;;;;;;;2.17;1.30;;;23.90;46.90;;;;;;5073739;28;20381;-70
2021/05/09 11:23:59;;;;;;;2.38;1.38;;;24.00;46.80;;;;;;5073182;28;20124;-70
2021/05/09 11:26:30;;;;;;;2.17;1.40;;;24.00;46.40;;;;;;5065035;28;20497;-70
2021/05/09 11:29:08;;;;;;;2.65;1.50;;;24.00;45.80;;;;;;5064792;28;20101;-70
2021/05/09 11:31:35;;;;;;;3.42;1.70;;;24.00;45.90;;;;;;5083697;28;20519;-70
2021/05/09 11:34:02;;;;;;;5.35;2.25;;;24.00;45.20;;;;;;5071297;28;20145;-69
2021/05/09 11:36:29;;;;;;;4.30;1.50;;;24.00;45.30;;;;;;5072199;28;20514;-70
2021/05/09 11:39:30;;;;;;;3.08;1.92;;;24.00;44.90;;;;;;5068970;28;20064;-70
2021/05/09 11:42:00;;;;;;;2.30;1.42;;;24.10;45.20;;;;;;5061206;28;20488;-71
2021/05/09 11:44:28;;;;;;;2.35;1.40;;;24.10;45.10;;;;;;5070172;28;20617;-69
2021/05/09 11:46:55;;;;;;;2.15;1.58;;;24.10;45.20;;;;;;5072155;28;20016;-70
2021/05/09 11:49:22;;;;;;;3.65;1.55;;;24.20;45.40;;;;;;5089202;28;20153;-70
2021/05/09 11:52:02;;;;;;;3.15;1.35;;;24.20;45.40;;;;;;5076320;28;20175;-69
2021/05/09 11:54:34;;;;;;;2.65;1.50;;;24.20;44.80;;;;;;5085273;28;20032;-69
2021/05/09 11:57:01;;;;;;;3.00;1.50;;;24.20;44.70;;;;;;5071626;28;20036;-69
2021/05/09 11:59:33;;;;;;;3.80;1.23;;;24.20;44.40;;;;;;5069215;28;20032;-70
2021/05/09 12:02:00;;;;;;;2.97;1.50;;;24.30;44.40;;;;;;5071397;28;20032;-70
2021/05/09 12:04:30;;;;;;;3.40;1.52;;;24.30;44.00;;;;;;5053794;28;20405;-70
2021/05/09 12:07:17;;;;;;;1.95;1.30;;;24.30;44.00;;;;;;5071768;28;20169;-70
2021/05/09 12:09:47;;;;;;;2.05;1.23;;;24.30;44.30;;;;;;5069513;28;20110;-70
2021/05/09 12:12:17;;;;;;;2.47;1.60;;;24.30;44.00;;;;;;5071669;28;20126;-70
2021/05/09 12:14:42;;;;;;;2.92;1.58;;;24.30;43.70;;;;;;5070457;28;20037;-69
2021/05/09 12:17:18;;;;;;;3.03;1.50;;;24.30;43.30;;;;;;5071426;28;20020;-70
2021/05/09 12:19:44;;;;;;;2.15;1.50;;;24.40;43.30;;;;;;5084297;28;20373;-69
2021/05/09 12:22:10;;;;;;;2.83;1.40;;;24.50;43.40;;;;;;5070710;28;20028;-70
2021/05/09 12:25:09;;;;;;;2.40;1.48;;;24.50;43.30;;;;;;5070086;28;20029;-69
2021/05/09 12:27:45;;;;;;;10.38;3.60;;;24.60;43.60;;;;;;5024853;28;20036;-70
2021/05/09 12:30:15;;;;;;;7.90;4.03;;;24.70;43.60;;;;;;5056204;28;20381;-70
2021/05/09 12:32:41;;;;;;;4.20;1.80;;;24.70;43.40;;;;;;5070304;28;20111;-70
2021/05/09 12:35:07;;;;;;;2.65;1.55;;;24.80;43.40;;;;;;5081676;28;20112;-70
2021/05/09 12:37:35;;;;;;;2.00;1.52;;;24.80;43.30;;;;;;5039805;28;20056;-68
2021/05/09 12:40:16;;;;;;;4.57;1.77;;;24.90;43.10;;;;;;5051237;28;20033;-71
2021/05/09 12:42:49;;;;;;;2.55;1.70;;;25.00;43.00;;;;;;5073101;28;20036;-70
2021/05/09 12:45:15;;;;;;;3.60;1.40;;;25.00;42.80;;;;;;5052948;28;20025;-71
2021/05/09 12:47:40;;;;;;;3.45;1.55;;;25.10;43.20;;;;;;5051355;28;20045;-67
2021/05/09 12:50:06;;;;;;;3.40;1.67;;;25.10;43.20;;;;;;5068970;28;20123;-69
2021/05/09 12:52:45;;;;;;;2.33;1.48;;;25.20;43.00;;;;;;5070494;28;20075;-68